Time;durP1;ratioP1;P1;durP2;ratioP2;P2;SDS_P1;SDS_P2;PMS_P1;PMS_P2;Temp;Humidity;BMP_temperature;BMP_pressure;BME280_temperature;BME280_humidity;BME280_pressure;Samples;Min_cycle;Max_cycle;Signal;HPM_P1;HPM_P2
2023/06/29 00:00:52;;;;;;;12.65;8.08;;;26.90;99.90;;;;;;1843956;76;21115;-77
2023/06/29 00:03:27;;;;;;;14.87;8.00;;;26.90;99.90;;;;;;1894240;74;21184;-80
2023/06/29 00:06:17;;;;;;;11.03;6.80;;;26.90;99.90;;;;;;1853328;75;21103;-82
2023/06/29 00:09:07;;;;;;;9.83;6.78;;;26.90;99.90;;;;;;1830357;76;21155;-82
2023/06/29 00:11:39;;;;;;;9.78;7.37;;;26.90;99.90;;;;;;1907681;73;21105;-82
2023/06/29 00:14:12;;;;;;;13.10;8.28;;;26.90;99.90;;;;;;1900061;74;21067;-80
2023/06/29 00:16:45;;;;;;;14.50;9.30;;;26.90;99.90;;;;;;1908817;74;21028;-81
2023/06/29 00:19:26;;;;;;;12.95;8.83;;;26.90;99.90;;;;;;1902833;73;21127;-83
2023/06/29 00:22:01;;;;;;;13.13;9.48;;;26.90;99.90;;;;;;1903512;73;21123;-81
2023/06/29 00:24:42;;;;;;;12.43;8.63;;;26.90;99.90;;;;;;1858817;75;21559;-79
2023/06/29 00:27:14;;;;;;;12.93;8.18;;;27.00;99.90;;;;;;1904017;74;21165;-80
2023/06/29 00:29:46;;;;;;;13.75;7.45;;;27.00;99.90;;;;;;1900905;73;21134;-81
2023/06/29 00:32:23;;;;;;;8.45;6.67;;;27.00;99.90;;;;;;1892808;74;21067;-82
2023/06/29 00:35:05;;;;;;;9.68;6.85;;;27.00;99.90;;;;;;1901249;74;21607;-80
2023/06/29 00:37:37;;;;;;;8.48;7.00;;;27.10;99.90;;;;;;1848464;76;21238;-80
2023/06/29 00:40:12;;;;;;;11.35;7.03;;;27.10;99.90;;;;;;1848955;75;21092;-79
2023/06/29 00:42:45;;;;;;;8.75;6.90;;;27.10;99.90;;;;;;1851107;75;21151;-82
2023/06/29 00:45:29;;;;;;;11.28;6.50;;;27.10;99.90;;;;;;1880328;74;21146;-79
2023/06/29 00:48:02;;;;;;;13.18;7.15;;;27.10;99.90;;;;;;1890793;74;21142;-81
2023/06/29 00:50:36;;;;;;;11.65;7.47;;;27.20;99.90;;;;;;1895882;74;21038;-83
2023/06/29 00:53:11;;;;;;;8.98;7.35;;;27.20;99.90;;;;;;1877045;75;21529;-81
2023/06/29 00:55:44;;;;;;;13.22;8.20;;;27.20;99.90;;;;;;1871174;74;21107;-79
2023/06/29 00:58:26;;;;;;;12.53;8.28;;;27.30;99.90;;;;;;1888818;74;21129;-77
2023/06/29 01:01:07;;;;;;;13.65;8.68;;;27.30;99.90;;;;;;1894827;74;21122;-78
2023/06/29 01:03:49;;;;;;;13.40;7.75;;;27.40;99.90;;;;;;1892086;74;21237;-76
2023/06/29 01:06:29;;;;;;;11.68;7.53;;;27.40;99.90;;;;;;1903092;74;21139;-76
2023/06/29 01:09:20;;;;;;;13.55;8.30;;;27.40;99.90;;;;;;1889491;74;21171;-76
2023/06/29 01:12:03;;;;;;;27.40;8.93;;;27.30;99.90;;;;;;1896216;74;21137;-78
2023/06/29 01:14:40;;;;;;;25.88;9.18;;;27.40;99.90;;;;;;1891419;74;21106;-79
2023/06/29 01:17:20;;;;;;;10.93;6.80;;;27.50;99.90;;;;;;1904316;75;21092;-83
2023/06/29 01:19:54;;;;;;;8.83;6.25;;;27.50;99.90;;;;;;1912372;73;21731;-80
2023/06/29 01:22:29;;;;;;;10.05;6.80;;;27.50;99.90;;;;;;1893203;74;21211;-78
2023/06/29 01:25:03;;;;;;;10.90;6.17;;;27.50;99.90;;;;;;1903407;74;21052;-77
2023/06/29 01:27:36;;;;;;;10.03;6.65;;;27.50;99.90;;;;;;1864974;75;21062;-76
2023/06/29 01:30:16;;;;;;;8.83;6.85;;;27.50;99.90;;;;;;1886726;74;21196;-79
2023/06/29 01:32:53;;;;;;;13.60;7.25;;;27.60;99.90;;;;;;1858972;76;21098;-83
2023/06/29 01:35:38;;;;;;;16.50;7.85;;;27.60;99.90;;;;;;1852270;76;21107;-81
2023/06/29 01:38:30;;;;;;;13.15;7.20;;;27.70;99.90;;;;;;1854581;76;21664;-82
2023/06/29 01:41:08;;;;;;;10.55;6.55;;;27.80;99.90;;;;;;1885642;74;21065;-81
2023/06/29 01:43:43;;;;;;;15.35;7.12;;;27.90;99.90;;;;;;1868776;74;21115;-82
2023/06/29 01:46:29;;;;;;;8.43;6.12;;;27.90;99.90;;;;;;1898348;74;21107;-79
2023/06/29 01:49:17;;;;;;;9.35;6.22;;;28.00;99.90;;;;;;1897533;73;21220;-78
2023/06/29 01:51:51;;;;;;;10.78;5.92;;;28.10;99.90;;;;;;1891725;74;21072;-78
2023/06/29 01:54:28;;;;;;;11.55;5.97;;;28.10;99.90;;;;;;1895677;74;21108;-84
2023/06/29 01:57:03;;;;;;;15.10;6.17;;;28.20;99.90;;;;;;1889655;74;21158;-77
2023/06/29 01:59:53;;;;;;;8.63;5.50;;;28.20;99.90;;;;;;1860875;76;21134;-80
2023/06/29 02:02:34;;;;;;;11.68;5.83;;;28.30;99.90;;;;;;1859116;75;21211;-79
2023/06/29 02:05:09;;;;;;;7.97;5.22;;;28.40;99.90;;;;;;1880981;74;21100;-80
2023/06/29 02:07:43;;;;;;;9.23;5.83;;;28.50;99.90;;;;;;1894155;74;21088;-82
2023/06/29 02:10:21;;;;;;;15.15;5.87;;;28.50;99.90;;;;;;1889097;73;21133;-82
2023/06/29 02:13:08;;;;;;;9.28;6.17;;;28.60;99.90;;;;;;1913760;73;21145;-81
2023/06/29 02:15:44;;;;;;;12.45;7.80;;;28.70;99.90;;;;;;1900105;74;21157;-80
2023/06/29 02:18:18;;;;;;;11.93;6.50;;;28.80;99.90;;;;;;1859248;74;21198;-79
2023/06/29 02:20:57;;;;;;;12.33;8.05;;;28.90;99.90;;;;;;1857694;75;21072;-80
2023/06/29 02:23:46;;;;;;;13.70;9.65;;;29.00;99.90;;;;;;1879617;74;21083;-81
2023/06/29 02:26:30;;;;;;;11.00;8.85;;;29.00;99.90;;;;;;1831594;75;21131;-79
2023/06/29 02:29:03;;;;;;;14.40;10.48;;;29.10;99.90;;;;;;1855068;76;21099;-79
2023/06/29 02:31:39;;;;;;;12.28;8.35;;;29.10;99.90;;;;;;1892184;73;21165;-80
2023/06/29 02:34:14;;;;;;;10.53;6.10;;;29.20;99.90;;;;;;1899179;74;21087;-81
2023/06/29 02:36:53;;;;;;;13.00;7.75;;;29.30;99.90;;;;;;1892472;74;21212;-79
2023/06/29 02:39:29;;;;;;;12.75;7.33;;;29.50;99.90;;;;;;1886704;74;21188;-80
2023/06/29 02:42:05;;;;;;;9.65;7.12;;;29.60;99.90;;;;;;1857644;75;21108;-77
2023/06/29 02:44:40;;;;;;;13.80;7.58;;;29.70;99.90;;;;;;1863919;76;21219;-80
2023/06/29 02:47:14;;;;;;;13.20;7.78;;;30.00;99.90;;;;;;1882003;74;21463;-81
2023/06/29 02:49:54;;;;;;;9.90;7.50;;;29.90;99.90;;;;;;1862633;75;21079;-80
2023/06/29 02:52:45;;;;;;;9.43;7.03;;;29.90;99.90;;;;;;1861768;74;21491;-77
2023/06/29 02:55:36;;;;;;;12.63;7.30;;;29.90;99.90;;;;;;1893555;74;21163;-78
2023/06/29 02:58:30;;;;;;;12.37;7.97;;;30.00;99.90;;;;;;1881801;75;21091;-80
2023/06/29 03:01:23;;;;;;;13.70;7.62;;;29.90;99.90;;;;;;1853118;74;21232;-76
2023/06/29 03:04:14;;;;;;;12.25;8.15;;;29.90;99.90;;;;;;1893552;74;21147;-78
2023/06/29 03:06:55;;;;;;;13.58;8.30;;;29.90;99.90;;;;;;1851054;76;21092;-80
2023/06/29 03:09:34;;;;;;;8.85;6.45;;;29.80;99.90;;;;;;1886276;74;21210;-78
2023/06/29 03:12:12;;;;;;;12.65;7.42;;;29.90;99.90;;;;;;1895989;73;21130;-82
2023/06/29 03:15:01;;;;;;;10.72;8.03;;;29.90;99.90;;;;;;1902736;73;21060;-79
2023/06/29 03:17:51;;;;;;;11.83;7.00;;;29.90;99.90;;;;;;1894732;74;21177;-78
2023/06/29 03:20:23;;;;;;;10.75;6.67;;;29.90;99.90;;;;;;1887628;74;21184;-79
2023/06/29 03:23:06;;;;;;;20.05;15.45;;;29.90;99.90;;;;;;1882016;74;21137;-79
2023/06/29 03:25:56;;;;;;;13.08;8.43;;;29.90;99.90;;;;;;1860382;75;21092;-79
2023/06/29 03:28:32;;;;;;;11.90;6.40;;;30.10;99.90;;;;;;1897384;75;21073;-78
2023/06/29 03:31:09;;;;;;;8.88;5.80;;;30.20;99.90;;;;;;1893184;74;21184;-80
2023/06/29 03:33:48;;;;;;;9.50;6.15;;;30.30;99.90;;;;;;1890364;74;21116;-79
2023/06/29 03:36:37;;;;;;;9.63;6.55;;;30.30;99.90;;;;;;1869503;74;21178;-81
2023/06/29 03:39:14;;;;;;;11.35;6.20;;;30.30;99.90;;;;;;1901428;74;21186;-81
2023/06/29 03:41:54;;;;;;;11.53;6.90;;;30.30;99.90;;;;;;1892078;74;21157;-76
2023/06/29 03:44:29;;;;;;;10.58;7.33;;;30.30;99.90;;;;;;1859192;75;21155;-77
2023/06/29 03:47:14;;;;;;;11.10;6.95;;;30.20;99.90;;;;;;1889179;74;21486;-77
2023/06/29 03:49:50;;;;;;;12.68;6.78;;;30.20;99.90;;;;;;1888455;74;21113;-77
2023/06/29 03:52:26;;;;;;;10.15;6.28;;;30.20;99.90;;;;;;1897167;74;21105;-80
2023/06/29 03:54:59;;;;;;;11.57;6.58;;;30.30;99.90;;;;;;1882542;74;21115;-79
2023/06/29 03:57:38;;;;;;;10.80;6.30;;;30.40;99.90;;;;;;1877931;74;21588;-81
2023/06/29 04:00:20;;;;;;;10.43;6.67;;;30.50;99.90;;;;;;1893937;74;21142;-78
2023/06/29 04:03:17;;;;;;;9.93;6.12;;;30.60;99.90;;;;;;1878214;74;21158;-80
2023/06/29 04:06:07;;;;;;;13.30;7.35;;;30.80;99.90;;;;;;1884652;75;21159;-79
2023/06/29 04:08:46;;;;;;;10.58;7.35;;;30.90;99.90;;;;;;1863305;74;21093;-78
2023/06/29 04:11:22;;;;;;;10.65;7.15;;;31.00;99.90;;;;;;1862771;74;21068;-79
2023/06/29 04:14:03;;;;;;;7.97;6.30;;;31.10;99.90;;;;;;1883508;75;21132;-77
2023/06/29 04:16:48;;;;;;;18.27;7.80;;;31.20;99.90;;;;;;1886268;74;21105;-79
2023/06/29 04:19:32;;;;;;;17.55;8.50;;;31.30;99.90;;;;;;1871490;74;21131;-77
2023/06/29 04:22:07;;;;;;;16.30;9.40;;;31.20;99.90;;;;;;1883715;75;21492;-79
2023/06/29 04:24:41;;;;;;;12.85;6.72;;;31.30;99.90;;;;;;1811731;78;21082;-79
2023/06/29 04:27:15;;;;;;;9.93;6.22;;;31.40;99.90;;;;;;1854257;75;21158;-71
2023/06/29 04:29:50;;;;;;;12.68;6.67;;;31.50;99.90;;;;;;1855422;76;21123;-72
2023/06/29 04:32:24;;;;;;;12.33;5.65;;;31.70;99.90;;;;;;1898593;75;21195;-69
2023/06/29 04:34:59;;;;;;;19.35;7.58;;;31.80;99.90;;;;;;1904076;74;21081;-69
2023/06/29 04:37:41;;;;;;;11.80;6.28;;;31.90;99.90;;;;;;1901696;73;21128;-70
2023/06/29 04:40:09;;;;;;;11.18;5.33;;;32.00;99.90;;;;;;1900486;74;21586;-69
2023/06/29 04:42:46;;;;;;;9.98;5.75;;;32.20;99.90;;;;;;1908190;75;21104;-69
2023/06/29 04:45:21;;;;;;;8.95;5.65;;;32.30;99.90;;;;;;1895182;75;21071;-69
2023/06/29 04:47:56;;;;;;;12.80;7.03;;;32.30;99.90;;;;;;1898607;73;21100;-69
2023/06/29 04:50:37;;;;;;;10.10;5.85;;;32.40;99.90;;;;;;1884908;75;21123;-69
2023/06/29 04:53:19;;;;;;;8.53;4.95;;;32.60;99.90;;;;;;1896513;74;21134;-70
2023/06/29 04:55:52;;;;;;;10.43;6.05;;;32.60;99.90;;;;;;1915768;74;21099;-70
2023/06/29 04:58:23;;;;;;;8.85;5.33;;;32.70;99.90;;;;;;1904809;73;21118;-69
2023/06/29 05:00:59;;;;;;;9.53;5.05;;;32.70;99.90;;;;;;1898205;74;21120;-69
2023/06/29 05:03:34;;;;;;;16.37;5.50;;;32.80;99.90;;;;;;1901977;74;21165;-70
2023/06/29 05:06:06;;;;;;;11.28;5.53;;;32.80;99.90;;;;;;1874544;75;21079;-71
2023/06/29 05:08:39;;;;;;;10.60;5.37;;;32.90;99.90;;;;;;1839910;76;21157;-70
2023/06/29 05:11:12;;;;;;;11.75;7.00;;;32.90;99.90;;;;;;1882859;74;21132;-71
2023/06/29 05:13:46;;;;;;;7.53;5.83;;;32.90;99.70;;;;;;1839108;76;21081;-70
2023/06/29 05:16:19;;;;;;;11.25;6.08;;;32.90;99.90;;;;;;1888301;74;21134;-69
2023/06/29 05:18:53;;;;;;;8.45;4.92;;;33.00;99.90;;;;;;1858087;76;21540;-71
2023/06/29 05:21:27;;;;;;;8.35;5.97;;;33.10;99.10;;;;;;1884884;74;21459;-70
2023/06/29 05:23:59;;;;;;;11.85;5.87;;;33.10;99.70;;;;;;1897620;73;21139;-69
2023/06/29 05:26:32;;;;;;;9.35;5.20;;;33.20;99.90;;;;;;1912437;74;21108;-71
2023/06/29 05:29:04;;;;;;;9.33;5.22;;;33.30;99.30;;;;;;1897912;75;21072;-69
2023/06/29 05:31:35;;;;;;;7.90;4.47;;;33.40;99.20;;;;;;1901495;73;21555;-71
2023/06/29 05:34:08;;;;;;;6.25;4.22;;;33.40;98.20;;;;;;1904269;74;21146;-69
2023/06/29 05:36:46;;;;;;;8.63;4.75;;;33.40;97.60;;;;;;1907697;74;21194;-70
2023/06/29 05:39:19;;;;;;;6.87;4.10;;;33.50;96.80;;;;;;1907363;74;21167;-71
2023/06/29 05:41:51;;;;;;;6.83;4.22;;;33.40;95.90;;;;;;1904875;73;21143;-71
2023/06/29 05:44:24;;;;;;;12.80;6.62;;;33.40;95.20;;;;;;1892899;73;21722;-69
2023/06/29 05:46:56;;;;;;;8.00;4.90;;;33.30;96.00;;;;;;1907599;74;21155;-71
2023/06/29 05:49:30;;;;;;;8.23;5.10;;;33.30;96.40;;;;;;1902790;74;21181;-70
2023/06/29 05:52:02;;;;;;;7.22;4.55;;;33.30;96.90;;;;;;1901727;73;21104;-68
2023/06/29 05:54:36;;;;;;;7.10;4.62;;;33.40;97.20;;;;;;1902321;74;21151;-69
2023/06/29 05:57:10;;;;;;;8.40;5.10;;;33.40;96.40;;;;;;1903631;74;21554;-68
2023/06/29 05:59:44;;;;;;;9.58;4.80;;;33.40;96.60;;;;;;1904946;73;21100;-68
2023/06/29 06:02:19;;;;;;;9.33;5.20;;;33.40;96.50;;;;;;1900017;74;21875;-71
2023/06/29 06:04:53;;;;;;;6.58;5.00;;;33.40;95.80;;;;;;1909968;74;21115;-70
2023/06/29 06:07:30;;;;;;;10.03;5.00;;;33.40;95.80;;;;;;1903255;74;21173;-70
2023/06/29 06:10:05;;;;;;;8.05;4.53;;;33.40;98.20;;;;;;1896106;74;21142;-70
2023/06/29 06:12:40;;;;;;;5.92;4.10;;;33.40;96.30;;;;;;1904554;74;21540;-69
2023/06/29 06:15:14;;;;;;;9.90;6.03;;;33.40;96.00;;;;;;1903748;74;21151;-71
2023/06/29 06:17:48;;;;;;;10.23;5.35;;;33.30;97.10;;;;;;1908629;73;21508;-68
2023/06/29 06:20:21;;;;;;;9.63;5.17;;;33.20;96.90;;;;;;1907214;74;21493;-69
2023/06/29 06:22:53;;;;;;;10.13;4.90;;;33.10;97.60;;;;;;1888031;74;21069;-70
2023/06/29 06:25:28;;;;;;;9.60;4.62;;;33.00;97.60;;;;;;1886197;75;21134;-72
2023/06/29 06:28:01;;;;;;;10.58;4.90;;;32.90;97.40;;;;;;1826729;77;21095;-71
2023/06/29 06:30:35;;;;;;;8.05;4.90;;;32.80;97.20;;;;;;1848957;76;21384;-71
2023/06/29 06:33:10;;;;;;;9.35;5.62;;;32.70;97.00;;;;;;1888894;75;21660;-69
2023/06/29 06:35:44;;;;;;;9.00;5.03;;;32.60;97.70;;;;;;1888021;74;21483;-69
2023/06/29 06:38:16;;;;;;;13.28;8.20;;;32.60;97.80;;;;;;1864191;76;21182;-69
2023/06/29 06:40:51;;;;;;;9.23;6.65;;;32.50;98.40;;;;;;1890490;74;21086;-69
2023/06/29 06:43:22;;;;;;;12.30;5.97;;;32.50;98.80;;;;;;1887682;74;21139;-71
2023/06/29 06:45:56;;;;;;;12.28;6.50;;;32.40;98.30;;;;;;1877268;74;21131;-70
2023/06/29 06:48:28;;;;;;;12.45;6.42;;;32.40;99.40;;;;;;1913094;73;21605;-70
2023/06/29 06:51:01;;;;;;;9.18;6.20;;;32.30;99.80;;;;;;1902256;73;21078;-70
2023/06/29 06:53:34;;;;;;;11.97;6.42;;;32.20;99.90;;;;;;1901871;74;21069;-69
2023/06/29 06:56:07;;;;;;;10.85;6.37;;;32.20;99.90;;;;;;1899450;73;21123;-70
2023/06/29 06:58:38;;;;;;;10.50;6.42;;;32.20;99.90;;;;;;1896199;74;21063;-69
2023/06/29 07:01:13;;;;;;;12.30;6.58;;;32.10;99.90;;;;;;1905172;74;21587;-70
2023/06/29 07:03:45;;;;;;;10.45;6.37;;;32.00;99.90;;;;;;1904598;74;21118;-70
2023/06/29 07:06:19;;;;;;;9.43;6.30;;;32.00;99.90;;;;;;1901281;73;21507;-69
2023/06/29 07:08:54;;;;;;;8.25;6.33;;;31.90;99.90;;;;;;1898961;74;21052;-70
2023/06/29 07:11:29;;;;;;;12.85;6.90;;;31.90;99.90;;;;;;1911076;73;21104;-69
2023/06/29 07:14:02;;;;;;;10.53;6.35;;;31.90;99.90;;;;;;1905941;74;21064;-68
2023/06/29 07:16:35;;;;;;;9.70;6.58;;;31.90;99.90;;;;;;1898171;74;21060;-70
2023/06/29 07:19:16;;;;;;;14.75;7.42;;;32.00;99.90;;;;;;1908900;74;21146;-69
2023/06/29 07:21:50;;;;;;;7.80;5.78;;;32.00;99.90;;;;;;1901918;73;21104;-70
2023/06/29 07:24:32;;;;;;;8.98;5.83;;;32.10;99.90;;;;;;1903942;74;21528;-71
2023/06/29 07:27:07;;;;;;;31.15;9.20;;;32.10;99.90;;;;;;1896496;75;21165;-69
2023/06/29 07:29:46;;;;;;;13.65;6.90;;;32.20;99.90;;;;;;1883828;75;21073;-71
2023/06/29 07:32:19;;;;;;;12.45;6.72;;;32.40;99.90;;;;;;1898162;74;21098;-68
2023/06/29 07:34:54;;;;;;;8.93;5.53;;;32.40;99.80;;;;;;1869786;75;21071;-69
2023/06/29 07:37:26;;;;;;;8.55;5.65;;;32.50;99.10;;;;;;1890151;74;21046;-69
2023/06/29 07:40:02;;;;;;;10.75;6.00;;;32.50;99.00;;;;;;1858169;76;21083;-70
2023/06/29 07:42:36;;;;;;;11.68;5.58;;;32.60;99.30;;;;;;1881005;74;21112;-70
2023/06/29 07:45:13;;;;;;;11.48;5.92;;;32.60;99.10;;;;;;1873518;74;21133;-70
2023/06/29 07:47:47;;;;;;;7.45;5.45;;;32.70;98.90;;;;;;1828118;77;21126;-68
2023/06/29 07:50:25;;;;;;;11.00;5.53;;;32.70;98.70;;;;;;1884335;74;21079;-69
2023/06/29 07:53:02;;;;;;;10.40;5.60;;;32.80;98.40;;;;;;1878444;74;21079;-70
2023/06/29 07:55:39;;;;;;;;;;;32.80;98.40;;;;;;1849583;76;21137;-72
2023/06/29 07:58:12;;;;;;;8.38;5.40;;;32.90;98.70;;;;;;1858328;76;20164;-71
2023/06/29 08:00:47;;;;;;;7.33;4.75;;;33.00;97.80;;;;;;1862117;76;21182;-69
2023/06/29 08:03:21;;;;;;;9.78;5.05;;;33.00;97.30;;;;;;1880512;74;21212;-69
2023/06/29 08:05:52;;;;;;;8.95;5.55;;;33.10;96.70;;;;;;1898327;74;21656;-70
2023/06/29 08:08:30;;;;;;;8.78;5.22;;;33.10;97.00;;;;;;1846093;76;21123;-68
2023/06/29 08:11:03;;;;;;;9.70;5.85;;;33.20;97.70;;;;;;1881972;75;21093;-70
2023/06/29 08:13:38;;;;;;;10.32;5.40;;;33.10;97.20;;;;;;1893662;74;21080;-70
2023/06/29 08:16:09;;;;;;;8.70;4.67;;;33.10;96.20;;;;;;1870763;75;21438;-69
2023/06/29 08:18:41;;;;;;;8.45;5.00;;;33.10;96.20;;;;;;1889252;74;21147;-69
2023/06/29 08:21:14;;;;;;;10.80;5.47;;;33.10;96.50;;;;;;1882845;74;21208;-69
2023/06/29 08:23:48;;;;;;;12.65;5.87;;;33.10;96.40;;;;;;1906893;74;21148;-69
2023/06/29 08:26:24;;;;;;;12.50;5.95;;;33.10;96.40;;;;;;1858427;75;21105;-71
2023/06/29 08:28:55;;;;;;;6.03;4.72;;;33.20;96.00;;;;;;1907757;74;21445;-68
2023/06/29 08:31:28;;;;;;;9.85;5.62;;;33.20;95.70;;;;;;1913454;74;21085;-69
2023/06/29 08:34:01;;;;;;;13.13;6.05;;;33.20;96.10;;;;;;1876464;74;21173;-69
2023/06/29 08:36:36;;;;;;;18.77;6.42;;;33.20;97.20;;;;;;1883583;74;21085;-70
2023/06/29 08:39:09;;;;;;;25.70;7.55;;;33.30;96.10;;;;;;1847411;76;21099;-74
2023/06/29 08:41:50;;;;;;;10.58;6.42;;;33.40;98.10;;;;;;1856474;76;21102;-72
2023/06/29 08:44:27;;;;;;;9.55;5.50;;;33.40;98.40;;;;;;1854116;76;21123;-70
2023/06/29 08:47:02;;;;;;;21.00;7.20;;;33.40;96.10;;;;;;1905339;73;21065;-69
2023/06/29 08:49:40;;;;;;;19.00;7.40;;;33.40;96.30;;;;;;1901915;74;21185;-69
2023/06/29 08:52:17;;;;;;;28.80;9.45;;;33.30;96.40;;;;;;1894048;74;21073;-69
2023/06/29 08:54:53;;;;;;;15.43;6.92;;;33.30;96.90;;;;;;1852397;76;21108;-71
2023/06/29 08:57:28;;;;;;;12.70;7.42;;;33.20;96.60;;;;;;1862578;76;21119;-69
2023/06/29 09:00:06;;;;;;;23.05;8.50;;;33.20;96.00;;;;;;1886385;76;21094;-71
2023/06/29 09:02:39;;;;;;;19.42;9.20;;;33.20;96.50;;;;;;1857456;76;21080;-68
2023/06/29 09:05:13;;;;;;;7.72;5.90;;;33.20;96.30;;;;;;1844063;75;21137;-70
2023/06/29 09:07:50;;;;;;;7.33;5.28;;;33.20;96.30;;;;;;1873450;76;21164;-70
2023/06/29 09:10:22;;;;;;;7.75;5.37;;;33.10;96.50;;;;;;1886232;75;21096;-70
2023/06/29 09:12:54;;;;;;;10.63;6.20;;;33.10;96.40;;;;;;1884116;74;21084;-68
2023/06/29 09:15:28;;;;;;;12.03;6.28;;;33.10;96.90;;;;;;1885827;74;21098;-70
2023/06/29 09:18:00;;;;;;;11.48;7.40;;;33.10;96.70;;;;;;1903632;74;21220;-68
2023/06/29 09:20:36;;;;;;;8.80;5.70;;;33.00;98.00;;;;;;1888399;75;21131;-70
2023/06/29 09:23:08;;;;;;;7.62;5.90;;;32.90;98.30;;;;;;1894060;74;21087;-69
2023/06/29 09:25:41;;;;;;;11.25;6.92;;;32.80;98.70;;;;;;1884282;75;21193;-70
2023/06/29 09:28:14;;;;;;;9.45;6.00;;;32.60;98.90;;;;;;1887294;74;21158;-70
2023/06/29 09:30:46;;;;;;;8.83;6.72;;;32.50;99.50;;;;;;1896561;74;21510;-70
2023/06/29 09:33:21;;;;;;;13.40;6.83;;;32.40;99.50;;;;;;1884243;74;21099;-71
2023/06/29 09:35:54;;;;;;;9.85;6.40;;;32.20;99.70;;;;;;1875915;74;21102;-70
2023/06/29 09:38:31;;;;;;;11.20;6.60;;;32.20;99.80;;;;;;1889734;74;21514;-71
2023/06/29 09:41:04;;;;;;;11.05;7.47;;;32.20;99.90;;;;;;1888687;74;21073;-71
2023/06/29 09:43:38;;;;;;;8.20;6.62;;;32.20;99.90;;;;;;1896731;74;21097;-69
2023/06/29 09:46:12;;;;;;;11.20;6.60;;;32.20;99.90;;;;;;1857825;76;21186;-70
2023/06/29 09:48:45;;;;;;;9.30;6.30;;;32.20;99.90;;;;;;1855108;76;21526;-70
2023/06/29 09:51:23;;;;;;;8.90;6.80;;;32.20;99.90;;;;;;1880561;74;21084;-71
2023/06/29 09:53:55;;;;;;;8.65;5.58;;;32.20;99.90;;;;;;1889632;74;21190;-70
2023/06/29 09:56:33;;;;;;;9.18;5.03;;;32.20;99.50;;;;;;1878825;74;21152;-70
2023/06/29 09:59:06;;;;;;;8.48;4.62;;;32.20;99.70;;;;;;1891567;75;21070;-69
2023/06/29 10:01:37;;;;;;;7.28;4.33;;;32.20;99.60;;;;;;1855378;76;21119;-68
2023/06/29 10:04:09;;;;;;;13.15;7.03;;;32.20;99.30;;;;;;1888705;74;21130;-70
2023/06/29 10:06:56;;;;;;;6.42;4.62;;;32.20;98.70;;;;;;1907691;74;21128;-70
2023/06/29 10:09:29;;;;;;;11.28;5.37;;;32.20;98.40;;;;;;1900238;73;21069;-71
2023/06/29 10:12:01;;;;;;;8.85;5.42;;;32.20;98.40;;;;;;1907071;73;21663;-69
2023/06/29 10:14:38;;;;;;;8.05;5.42;;;32.20;98.30;;;;;;1912102;74;21111;-69
2023/06/29 10:17:14;;;;;;;10.32;6.22;;;32.20;98.20;;;;;;1889101;75;21141;-69
2023/06/29 10:19:48;;;;;;;9.73;5.47;;;32.20;98.10;;;;;;1892656;74;21137;-67
2023/06/29 10:22:23;;;;;;;9.65;5.47;;;32.20;97.70;;;;;;1914436;73;21145;-69
2023/06/29 10:25:02;;;;;;;7.12;5.15;;;32.10;98.10;;;;;;1900938;74;21039;-68
2023/06/29 10:27:36;;;;;;;7.17;5.45;;;32.10;98.80;;;;;;1910153;74;21085;-69
2023/06/29 10:30:11;;;;;;;10.32;5.60;;;32.10;98.70;;;;;;1908286;73;21212;-70
2023/06/29 10:32:42;;;;;;;8.53;5.62;;;32.00;98.90;;;;;;1907492;73;21193;-68
2023/06/29 10:35:15;;;;;;;8.65;5.78;;;32.00;99.20;;;;;;1896058;74;21038;-68
2023/06/29 10:37:54;;;;;;;11.57;7.12;;;32.00;98.90;;;;;;1879449;74;21651;-69
2023/06/29 10:40:28;;;;;;;12.10;7.72;;;31.90;98.60;;;;;;1884105;74;21136;-69
2023/06/29 10:43:02;;;;;;;11.48;7.08;;;31.90;98.60;;;;;;1892915;74;21484;-68
2023/06/29 10:45:35;;;;;;;12.13;8.25;;;31.90;99.00;;;;;;1899589;74;21524;-69
2023/06/29 10:48:10;;;;;;;11.43;8.08;;;31.90;98.90;;;;;;1870948;74;21463;-68
2023/06/29 10:50:50;;;;;;;12.68;8.08;;;31.80;98.50;;;;;;1831369;76;21071;-69
2023/06/29 10:53:22;;;;;;;13.20;8.35;;;31.80;98.90;;;;;;1847306;76;21111;-69
2023/06/29 10:55:56;;;;;;;15.83;9.10;;;31.80;99.10;;;;;;1851833;76;21473;-70
2023/06/29 10:58:34;;;;;;;11.03;9.33;;;31.70;98.60;;;;;;1852936;76;21116;-69
2023/06/29 11:01:07;;;;;;;14.45;9.58;;;31.70;98.90;;;;;;1885650;74;21103;-70
2023/06/29 11:03:41;;;;;;;15.65;10.10;;;31.70;99.00;;;;;;1819063;77;21166;-69
2023/06/29 11:06:13;;;;;;;14.30;9.95;;;31.60;98.90;;;;;;1837734;76;21111;-70
2023/06/29 11:08:46;;;;;;;16.48;10.20;;;31.60;99.00;;;;;;1844030;76;21060;-68
2023/06/29 11:11:19;;;;;;;16.73;9.85;;;31.60;99.50;;;;;;1882085;75;21574;-70
2023/06/29 11:13:52;;;;;;;15.23;9.30;;;31.50;99.20;;;;;;1902388;75;21105;-69
2023/06/29 11:16:24;;;;;;;19.35;9.40;;;31.50;99.30;;;;;;1892451;73;21126;-69
2023/06/29 11:18:56;;;;;;;11.90;9.03;;;31.50;99.50;;;;;;1900612;73;21075;-69
2023/06/29 11:21:29;;;;;;;15.05;8.50;;;31.50;99.60;;;;;;1910659;74;21078;-68
2023/06/29 11:24:02;;;;;;;17.00;8.75;;;31.40;99.60;;;;;;1908774;73;21150;-70
2023/06/29 11:26:33;;;;;;;11.22;8.88;;;31.40;99.90;;;;;;1889416;75;21507;-69
2023/06/29 11:29:08;;;;;;;14.47;8.03;;;31.40;99.80;;;;;;1895643;75;21049;-69
2023/06/29 11:31:40;;;;;;;14.80;8.88;;;31.40;99.90;;;;;;1905815;73;21181;-69
2023/06/29 11:34:14;;;;;;;12.55;8.93;;;31.30;99.90;;;;;;1900755;73;21068;-69
2023/06/29 11:36:47;;;;;;;10.32;8.05;;;31.30;99.90;;;;;;1888753;73;21500;-70
2023/06/29 11:39:21;;;;;;;13.25;8.63;;;31.20;99.90;;;;;;1875653;74;21053;-69
2023/06/29 11:41:53;;;;;;;15.65;8.50;;;31.20;99.90;;;;;;1853892;76;21745;-70
2023/06/29 11:44:27;;;;;;;13.15;8.00;;;31.10;99.90;;;;;;1852211;76;21123;-69
2023/06/29 11:47:03;;;;;;;14.87;8.83;;;31.10;99.90;;;;;;1855789;76;21508;-70
2023/06/29 11:49:37;;;;;;;10.30;8.05;;;31.10;99.90;;;;;;1849003;76;21226;-70
2023/06/29 11:52:10;;;;;;;14.60;8.58;;;31.10;99.90;;;;;;1887970;74;21182;-70
2023/06/29 11:54:43;;;;;;;11.45;7.92;;;31.10;99.90;;;;;;1888456;74;21162;-71
2023/06/29 11:57:19;;;;;;;11.90;7.87;;;31.00;99.90;;;;;;1861963;74;21515;-70
2023/06/29 11:59:51;;;;;;;12.23;7.83;;;31.00;99.90;;;;;;1865429;75;21204;-70
2023/06/29 12:02:28;;;;;;;9.08;6.50;;;31.00;99.90;;;;;;1862347;74;21510;-68
2023/06/29 12:05:03;;;;;;;17.60;8.33;;;30.90;99.90;;;;;;1880587;75;21647;-69
2023/06/29 12:07:46;;;;;;;11.80;8.18;;;30.90;99.90;;;;;;1874756;75;21549;-68
2023/06/29 12:10:23;;;;;;;17.17;8.98;;;31.00;99.90;;;;;;1885452;74;21075;-68
2023/06/29 12:12:59;;;;;;;15.00;9.33;;;30.90;99.90;;;;;;1893051;76;21573;-68
2023/06/29 12:15:35;;;;;;;14.20;8.98;;;30.90;99.90;;;;;;1919425;74;21092;-69
2023/06/29 12:18:16;;;;;;;12.20;8.55;;;30.90;99.90;;;;;;1862726;75;21188;-69
2023/06/29 12:20:49;;;;;;;9.93;7.72;;;30.90;99.90;;;;;;1849693;76;21170;-68
2023/06/29 12:23:24;;;;;;;12.23;8.48;;;30.80;99.90;;;;;;1858198;76;21498;-69
2023/06/29 12:25:55;;;;;;;12.07;7.80;;;30.90;99.90;;;;;;1897817;74;21080;-69
2023/06/29 12:28:29;;;;;;;11.43;8.13;;;30.80;99.90;;;;;;1907726;74;21145;-74
2023/06/29 12:31:06;;;;;;;11.70;8.20;;;30.80;99.90;;;;;;1883139;74;21675;-79
2023/06/29 12:33:49;;;;;;;11.88;8.70;;;30.80;99.90;;;;;;1876277;75;21644;-80
2023/06/29 12:36:24;;;;;;;16.95;8.80;;;30.90;99.90;;;;;;1875751;74;21190;-81
2023/06/29 12:38:59;;;;;;;14.25;8.73;;;30.90;99.90;;;;;;1868993;75;21086;-82
2023/06/29 12:41:33;;;;;;;13.88;8.60;;;30.80;99.90;;;;;;1841256;76;21181;-82
2023/06/29 12:44:10;;;;;;;12.60;8.78;;;30.80;99.90;;;;;;1856712;75;21138;-80
2023/06/29 12:46:44;;;;;;;11.28;8.75;;;30.80;99.90;;;;;;1899219;75;21221;-77
2023/06/29 12:49:21;;;;;;;14.23;9.28;;;30.80;99.90;;;;;;1833281;77;21100;-78
2023/06/29 12:51:55;;;;;;;14.53;9.23;;;30.80;99.90;;;;;;1876869;75;21056;-81
2023/06/29 12:54:30;;;;;;;11.40;8.60;;;30.80;99.90;;;;;;1856301;77;21150;-82
2023/06/29 12:57:05;;;;;;;13.08;9.08;;;30.70;99.90;;;;;;1863547;75;21565;-82
2023/06/29 12:59:57;;;;;;;9.63;7.42;;;30.80;99.90;;;;;;1917279;74;21122;-80
2023/06/29 13:02:37;;;;;;;14.10;7.30;;;30.80;99.90;;;;;;1887417;74;21485;-81
2023/06/29 13:05:11;;;;;;;12.20;8.30;;;30.70;99.90;;;;;;1910964;74;21091;-82
2023/06/29 13:07:47;;;;;;;11.97;8.30;;;30.70;99.90;;;;;;1851806;76;21112;-79
2023/06/29 13:10:23;;;;;;;12.03;8.10;;;30.70;99.90;;;;;;1839735;76;21095;-79
2023/06/29 13:12:57;;;;;;;10.30;8.20;;;30.70;99.90;;;;;;1892636;73;21095;-77
2023/06/29 13:15:43;;;;;;;11.28;8.30;;;30.70;99.90;;;;;;1910194;73;21481;-80
2023/06/29 13:18:33;;;;;;;11.70;8.00;;;30.70;99.90;;;;;;1906501;74;21220;-82
2023/06/29 13:21:06;;;;;;;12.13;7.85;;;30.70;99.90;;;;;;1883891;73;21108;-81
2023/06/29 13:23:39;;;;;;;14.00;7.97;;;30.70;99.90;;;;;;1896562;74;21080;-81
2023/06/29 13:26:19;;;;;;;8.83;7.33;;;30.70;99.90;;;;;;1886118;74;21055;-79